sensor_id;sensor_type;location;lat;lon;timestamp;pressure;altitude;pressure_sealevel;temperature;humidity
51227;BME280;42714;48.260;10.980;2023-07-22T00:02:57;970.5;;;15.3;100.0
51227;BME280;42714;48.260;10.980;2023-07-22T00:07:58;970.5;;;15.3;100.0
51227;BME280;42714;48.260;10.980;2023-07-22T00:12:59;970.5;;;15.2;100.0
51227;BME280;42714;48.260;10.980;2023-07-22T00:18:00;970.4;;;15.2;100.0
51227;BME280;42714;48.260;10.980;2023-07-22T00:23:01;970.4;;;15.2;100.0
51227;BME280;42714;48.260;10.980;2023-07-22T00:28:03;970.4;;;15.2;100.0
51227;BME280;42714;48.260;10.980;2023-07-22T00:33:03;970.4;;;15.1;100.0
51227;BME280;42714;48.260;10.980;2023-07-22T00:38:05;970.3;;;15.0;100.0
51227;BME280;42714;48.260;10.980;2023-07-22T00:43:05;970.3;;;14.9;100.0
51227;BME280;42714;48.260;10.980;2023-07-22T00:48:06;970.3;;;14.9;100.0
51227;BME280;42714;48.260;10.980;2023-07-22T00:53:07;970.2;;;14.9;100.0
51227;BME280;42714;48.260;10.980;2023-07-22T00:58:08;970.2;;;14.8;100.0
51227;BME280;42714;48.260;10.980;2023-07-22T01:03:09;970.1;;;14.7;100.0
51227;BME280;42714;48.260;10.980;2023-07-22T01:08:11;970.1;;;14.6;100.0
51227;BME280;42714;48.260;10.980;2023-07-22T01:13:12;970.2;;;14.5;100.0
51227;BME280;42714;48.260;10.980;2023-07-22T01:18:13;970.1;;;14.4;100.0
51227;BME280;42714;48.260;10.980;2023-07-22T01:23:14;970.1;;;14.3;100.0
51227;BME280;42714;48.260;10.980;2023-07-22T01:28:15;970.1;;;14.3;100.0
51227;BME280;42714;48.260;10.980;2023-07-22T01:33:16;970.1;;;14.1;100.0
51227;BME280;42714;48.260;10.980;2023-07-22T01:38:17;970.1;;;14.1;100.0
51227;BME280;42714;48.260;10.980;2023-07-22T01:43:18;970.1;;;14.1;100.0
51227;BME280;42714;48.260;10.980;2023-07-22T01:48:19;970.2;;;14.0;100.0
51227;BME280;42714;48.260;10.980;2023-07-22T01:53:20;970.2;;;14.0;100.0
51227;BME280;42714;48.260;10.980;2023-07-22T01:58:21;970.2;;;14.0;100.0
51227;BME280;42714;48.260;10.980;2023-07-22T02:03:22;970.2;;;14.0;100.0
51227;BME280;42714;48.260;10.980;2023-07-22T02:08:23;970.3;;;13.9;100.0
51227;BME280;42714;48.260;10.980;2023-07-22T02:13:24;970.3;;;13.8;100.0
51227;BME280;42714;48.260;10.980;2023-07-22T02:18:25;970.4;;;13.6;100.0
51227;BME280;42714;48.260;10.980;2023-07-22T02:23:26;970.4;;;13.5;100.0
51227;BME280;42714;48.260;10.980;2023-07-22T02:28:27;970.3;;;13.5;100.0
51227;BME280;42714;48.260;10.980;2023-07-22T02:33:28;970.4;;;13.5;100.0
51227;BME280;42714;48.260;10.980;2023-07-22T02:38:29;970.4;;;13.6;100.0
51227;BME280;42714;48.260;10.980;2023-07-22T02:43:30;970.4;;;13.5;100.0
51227;BME280;42714;48.260;10.980;2023-07-22T02:48:31;970.4;;;13.5;100.0
51227;BME280;42714;48.260;10.980;2023-07-22T02:53:32;970.4;;;13.5;100.0
51227;BME280;42714;48.260;10.980;2023-07-22T02:58:33;970.4;;;13.4;100.0
51227;BME280;42714;48.260;10.980;2023-07-22T03:03:34;970.5;;;13.4;100.0
51227;BME280;42714;48.260;10.980;2023-07-22T03:08:35;970.4;;;13.3;100.0
51227;BME280;42714;48.260;10.980;2023-07-22T03:13:36;970.4;;;13.2;100.0
51227;BME280;42714;48.260;10.980;2023-07-22T03:18:37;970.4;;;13.2;100.0
51227;BME280;42714;48.260;10.980;2023-07-22T03:23:38;970.5;;;13.1;100.0
51227;BME280;42714;48.260;10.980;2023-07-22T03:28:39;970.6;;;13.1;100.0
51227;BME280;42714;48.260;10.980;2023-07-22T03:33:40;970.7;;;13.1;100.0
51227;BME280;42714;48.260;10.980;2023-07-22T03:38:41;970.7;;;13.1;100.0
51227;BME280;42714;48.260;10.980;2023-07-22T03:43:42;970.6;;;13.2;100.0
51227;BME280;42714;48.260;10.980;2023-07-22T03:48:43;970.6;;;13.2;100.0
51227;BME280;42714;48.260;10.980;2023-07-22T03:53:44;970.7;;;13.3;100.0
51227;BME280;42714;48.260;10.980;2023-07-22T03:58:45;970.8;;;13.2;100.0
51227;BME280;42714;48.260;10.980;2023-07-22T04:03:46;970.7;;;13.1;100.0
51227;BME280;42714;48.260;10.980;2023-07-22T04:08:47;970.7;;;13.2;100.0
51227;BME280;42714;48.260;10.980;2023-07-22T04:13:48;970.7;;;13.2;100.0
51227;BME280;42714;48.260;10.980;2023-07-22T04:18:49;970.7;;;13.4;100.0
51227;BME280;42714;48.260;10.980;2023-07-22T04:23:50;970.6;;;13.5;100.0
51227;BME280;42714;48.260;10.980;2023-07-22T04:28:51;970.7;;;13.6;100.0
51227;BME280;42714;48.260;10.980;2023-07-22T04:33:52;970.7;;;13.8;100.0
51227;BME280;42714;48.260;10.980;2023-07-22T04:38:53;970.7;;;14.0;100.0
51227;BME280;42714;48.260;10.980;2023-07-22T04:43:54;970.6;;;14.2;100.0
51227;BME280;42714;48.260;10.980;2023-07-22T04:48:55;970.7;;;14.4;100.0
51227;BME280;42714;48.260;10.980;2023-07-22T04:53:56;970.7;;;15.1;100.0
51227;BME280;42714;48.260;10.980;2023-07-22T04:58:57;970.6;;;16.1;100.0
51227;BME280;42714;48.260;10.980;2023-07-22T05:03:58;970.6;;;17.2;100.0
51227;BME280;42714;48.260;10.980;2023-07-22T05:08:59;970.5;;;18.2;100.0
51227;BME280;42714;48.260;10.980;2023-07-22T05:14:00;970.5;;;18.8;100.0
51227;BME280;42714;48.260;10.980;2023-07-22T05:19:01;970.7;;;18.5;100.0
51227;BME280;42714;48.260;10.980;2023-07-22T05:24:02;970.7;;;18.6;100.0
51227;BME280;42714;48.260;10.980;2023-07-22T05:29:03;970.7;;;19.3;100.0
51227;BME280;42714;48.260;10.980;2023-07-22T05:34:04;970.6;;;20.1;100.0
51227;BME280;42714;48.260;10.980;2023-07-22T05:39:05;970.6;;;21.5;100.0
51227;BME280;42714;48.260;10.980;2023-07-22T05:44:06;970.6;;;22.6;100.0
51227;BME280;42714;48.260;10.980;2023-07-22T05:49:07;970.7;;;23.0;100.0
51227;BME280;42714;48.260;10.980;2023-07-22T05:54:08;970.6;;;23.2;100.0
51227;BME280;42714;48.260;10.980;2023-07-22T05:59:09;970.6;;;24.0;97.6
51227;BME280;42714;48.260;10.980;2023-07-22T06:04:10;970.7;;;23.7;100.0
51227;BME280;42714;48.260;10.980;2023-07-22T06:09:11;970.8;;;23.3;100.0
51227;BME280;42714;48.260;10.980;2023-07-22T06:14:12;970.9;;;23.2;100.0
51227;BME280;42714;48.260;10.980;2023-07-22T06:19:13;970.8;;;24.0;93.7
51227;BME280;42714;48.260;10.980;2023-07-22T06:24:14;970.8;;;24.6;86.6
51227;BME280;42714;48.260;10.980;2023-07-22T06:29:15;970.8;;;25.4;79.6
51227;BME280;42714;48.260;10.980;2023-07-22T06:34:16;970.8;;;26.3;65.5
51227;BME280;42714;48.260;10.980;2023-07-22T06:39:17;970.8;;;26.9;61.1
51227;BME280;42714;48.260;10.980;2023-07-22T06:44:18;970.9;;;27.2;56.2
51227;BME280;42714;48.260;10.980;2023-07-22T06:49:19;970.9;;;27.7;52.7
51227;BME280;42714;48.260;10.980;2023-07-22T06:54:20;970.9;;;28.4;45.7
51227;BME280;42714;48.260;10.980;2023-07-22T06:59:21;971.0;;;28.3;44.6
51227;BME280;42714;48.260;10.980;2023-07-22T07:04:22;970.9;;;28.2;44.8
51227;BME280;42714;48.260;10.980;2023-07-22T07:09:23;970.9;;;29.0;42.2
51227;BME280;42714;48.260;10.980;2023-07-22T07:14:24;970.9;;;29.0;40.4
51227;BME280;42714;48.260;10.980;2023-07-22T07:19:25;970.9;;;29.6;40.2
51227;BME280;42714;48.260;10.980;2023-07-22T07:24:26;970.9;;;30.7;35.9
51227;BME280;42714;48.260;10.980;2023-07-22T07:29:27;970.9;;;31.4;33.9
51227;BME280;42714;48.260;10.980;2023-07-22T07:34:28;970.9;;;31.4;32.6
51227;BME280;42714;48.260;10.980;2023-07-22T07:39:29;970.9;;;31.4;32.6
51227;BME280;42714;48.260;10.980;2023-07-22T07:44:30;970.8;;;31.8;33.6
51227;BME280;42714;48.260;10.980;2023-07-22T07:49:31;970.9;;;32.1;32.7
51227;BME280;42714;48.260;10.980;2023-07-22T07:54:32;970.9;;;32.5;31.3
51227;BME280;42714;48.260;10.980;2023-07-22T07:59:33;970.8;;;32.6;29.8
51227;BME280;42714;48.260;10.980;2023-07-22T08:04:34;970.8;;;32.2;32.0
51227;BME280;42714;48.260;10.980;2023-07-22T08:09:35;970.9;;;32.6;29.2
51227;BME280;42714;48.260;10.980;2023-07-22T08:14:36;970.9;;;32.7;29.8
51227;BME280;42714;48.260;10.980;2023-07-22T08:19:37;970.9;;;31.4;30.5
51227;BME280;42714;48.260;10.980;2023-07-22T08:24:38;970.9;;;31.6;28.6
51227;BME280;42714;48.260;10.980;2023-07-22T08:29:39;970.9;;;31.9;28.4
51227;BME280;42714;48.260;10.980;2023-07-22T08:34:40;970.8;;;32.8;28.6
51227;BME280;42714;48.260;10.980;2023-07-22T08:39:41;970.9;;;32.3;28.0
51227;BME280;42714;48.260;10.980;2023-07-22T08:44:43;970.8;;;31.6;30.2
51227;BME280;42714;48.260;10.980;2023-07-22T08:49:50;970.8;;;32.2;26.6
51227;BME280;42714;48.260;10.980;2023-07-22T08:54:45;970.8;;;32.0;26.6
51227;BME280;42714;48.260;10.980;2023-07-22T08:59:46;970.8;;;33.1;25.9
51227;BME280;42714;48.260;10.980;2023-07-22T09:04:47;970.8;;;32.4;27.1
51227;BME280;42714;48.260;10.980;2023-07-22T09:09:48;970.8;;;33.6;25.1
51227;BME280;42714;48.260;10.980;2023-07-22T09:14:49;970.7;;;33.8;23.8
51227;BME280;42714;48.260;10.980;2023-07-22T09:19:53;970.8;;;32.8;25.1
51227;BME280;42714;48.260;10.980;2023-07-22T09:24:51;970.8;;;32.2;25.3
51227;BME280;42714;48.260;10.980;2023-07-22T09:29:52;970.7;;;33.2;25.5
51227;BME280;42714;48.260;10.980;2023-07-22T09:34:53;970.8;;;31.8;26.9
51227;BME280;42714;48.260;10.980;2023-07-22T09:39:54;970.7;;;32.6;27.0
51227;BME280;42714;48.260;10.980;2023-07-22T09:44:55;970.7;;;31.9;27.7
51227;BME280;42714;48.260;10.980;2023-07-22T09:49:56;970.7;;;32.2;26.4
51227;BME280;42714;48.260;10.980;2023-07-22T09:54:58;970.7;;;33.0;25.4
51227;BME280;42714;48.260;10.980;2023-07-22T09:59:58;970.6;;;33.2;25.9
51227;BME280;42714;48.260;10.980;2023-07-22T10:04:59;970.6;;;33.3;26.5
51227;BME280;42714;48.260;10.980;2023-07-22T10:10:00;970.6;;;34.5;23.9
51227;BME280;42714;48.260;10.980;2023-07-22T10:15:02;970.5;;;35.0;24.3
51227;BME280;42714;48.260;10.980;2023-07-22T10:25:04;970.5;;;34.4;24.2
51227;BME280;42714;48.260;10.980;2023-07-22T10:45:23;970.4;;;32.6;26.8
51227;BME280;42714;48.260;10.980;2023-07-22T10:50:08;970.3;;;34.0;24.9
51227;BME280;42714;48.260;10.980;2023-07-22T11:00:17;970.2;;;33.9;24.7
51227;BME280;42714;48.260;10.980;2023-07-22T11:05:11;970.3;;;32.5;24.7
51227;BME280;42714;48.260;10.980;2023-07-22T11:10:15;970.2;;;32.7;26.3
51227;BME280;42714;48.260;10.980;2023-07-22T11:15:14;970.1;;;34.7;23.6
51227;BME280;42714;48.260;10.980;2023-07-22T11:20:14;970.0;;;35.7;22.4
51227;BME280;42714;48.260;10.980;2023-07-22T11:25:16;969.9;;;35.6;21.4
51227;BME280;42714;48.260;10.980;2023-07-22T11:30:16;969.9;;;35.4;22.2
51227;BME280;42714;48.260;10.980;2023-07-22T11:35:17;969.8;;;35.5;21.4
51227;BME280;42714;48.260;10.980;2023-07-22T11:40:18;969.7;;;35.5;20.8
51227;BME280;42714;48.260;10.980;2023-07-22T11:45:19;969.7;;;34.5;22.2
51227;BME280;42714;48.260;10.980;2023-07-22T11:50:30;969.6;;;34.9;21.6
51227;BME280;42714;48.260;10.980;2023-07-22T11:55:22;969.5;;;34.6;23.2
51227;BME280;42714;48.260;10.980;2023-07-22T12:00:22;969.4;;;35.7;20.6
51227;BME280;42714;48.260;10.980;2023-07-22T12:05:23;969.4;;;34.9;22.2
51227;BME280;42714;48.260;10.980;2023-07-22T12:10:24;969.4;;;35.3;20.4
51227;BME280;42714;48.260;10.980;2023-07-22T12:15:25;969.2;;;36.0;20.7
51227;BME280;42714;48.260;10.980;2023-07-22T12:20:27;969.3;;;35.4;21.7
51227;BME280;42714;48.260;10.980;2023-07-22T12:25:27;969.3;;;35.3;21.1
51227;BME280;42714;48.260;10.980;2023-07-22T12:30:28;969.2;;;35.8;19.8
51227;BME280;42714;48.260;10.980;2023-07-22T12:35:29;969.2;;;35.1;22.4
51227;BME280;42714;48.260;10.980;2023-07-22T12:40:30;969.1;;;35.6;20.8
51227;BME280;42714;48.260;10.980;2023-07-22T12:45:31;969.1;;;35.7;21.1
51227;BME280;42714;48.260;10.980;2023-07-22T12:50:32;969.1;;;35.3;20.9
51227;BME280;42714;48.260;10.980;2023-07-22T12:55:33;969.0;;;33.8;22.3
51227;BME280;42714;48.260;10.980;2023-07-22T13:00:34;969.0;;;33.3;22.9
51227;BME280;42714;48.260;10.980;2023-07-22T13:05:35;969.1;;;30.7;25.8
51227;BME280;42714;48.260;10.980;2023-07-22T13:10:36;969.0;;;32.0;25.9
51227;BME280;42714;48.260;10.980;2023-07-22T13:15:37;968.9;;;33.7;23.8
51227;BME280;42714;48.260;10.980;2023-07-22T13:20:38;968.9;;;33.0;24.3
51227;BME280;42714;48.260;10.980;2023-07-22T13:25:39;968.7;;;34.0;24.3
51227;BME280;42714;48.260;10.980;2023-07-22T13:30:40;968.8;;;35.0;22.1
51227;BME280;42714;48.260;10.980;2023-07-22T13:35:41;968.8;;;35.9;21.6
51227;BME280;42714;48.260;10.980;2023-07-22T13:40:42;968.7;;;35.2;21.9
51227;BME280;42714;48.260;10.980;2023-07-22T13:45:43;968.8;;;35.2;21.5
51227;BME280;42714;48.260;10.980;2023-07-22T13:50:44;968.8;;;34.2;23.1
51227;BME280;42714;48.260;10.980;2023-07-22T13:55:45;968.8;;;32.9;24.1
51227;BME280;42714;48.260;10.980;2023-07-22T14:00:46;968.8;;;32.2;25.7
51227;BME280;42714;48.260;10.980;2023-07-22T14:05:47;968.7;;;32.6;25.7
51227;BME280;42714;48.260;10.980;2023-07-22T14:10:48;968.7;;;32.5;25.9
51227;BME280;42714;48.260;10.980;2023-07-22T14:15:49;968.7;;;33.3;24.2
51227;BME280;42714;48.260;10.980;2023-07-22T14:20:50;968.7;;;34.1;24.4
51227;BME280;42714;48.260;10.980;2023-07-22T14:25:51;968.6;;;34.2;23.2
51227;BME280;42714;48.260;10.980;2023-07-22T14:30:52;968.6;;;34.5;23.4
51227;BME280;42714;48.260;10.980;2023-07-22T14:35:53;968.6;;;33.6;23.7
51227;BME280;42714;48.260;10.980;2023-07-22T14:40:54;968.7;;;33.0;24.2
51227;BME280;42714;48.260;10.980;2023-07-22T14:45:55;968.7;;;30.7;26.5
51227;BME280;42714;48.260;10.980;2023-07-22T14:50:56;968.7;;;30.1;27.6
51227;BME280;42714;48.260;10.980;2023-07-22T14:55:57;968.6;;;31.2;26.8
51227;BME280;42714;48.260;10.980;2023-07-22T15:00:58;968.5;;;31.9;26.9
51227;BME280;42714;48.260;10.980;2023-07-22T15:05:59;968.5;;;32.8;24.6
51227;BME280;42714;48.260;10.980;2023-07-22T15:11:00;968.5;;;33.1;24.1
51227;BME280;42714;48.260;10.980;2023-07-22T15:16:01;968.5;;;31.9;24.8
51227;BME280;42714;48.260;10.980;2023-07-22T15:21:02;968.5;;;29.9;27.5
51227;BME280;42714;48.260;10.980;2023-07-22T15:26:03;968.5;;;29.6;28.7
51227;BME280;42714;48.260;10.980;2023-07-22T15:31:04;968.4;;;29.2;28.6
51227;BME280;42714;48.260;10.980;2023-07-22T15:36:05;968.4;;;28.6;29.8
51227;BME280;42714;48.260;10.980;2023-07-22T15:41:07;968.4;;;29.4;28.6
51227;BME280;42714;48.260;10.980;2023-07-22T15:46:07;968.4;;;29.6;28.4
51227;BME280;42714;48.260;10.980;2023-07-22T15:51:08;968.4;;;29.0;29.5
51227;BME280;42714;48.260;10.980;2023-07-22T15:56:09;968.4;;;28.2;30.9
51227;BME280;42714;48.260;10.980;2023-07-22T16:01:10;968.4;;;27.8;32.3
51227;BME280;42714;48.260;10.980;2023-07-22T16:06:11;968.5;;;27.6;31.6
51227;BME280;42714;48.260;10.980;2023-07-22T16:11:12;968.5;;;27.1;32.1
51227;BME280;42714;48.260;10.980;2023-07-22T16:16:13;968.5;;;26.6;32.8
51227;BME280;42714;48.260;10.980;2023-07-22T16:21:14;968.5;;;26.3;34.6
51227;BME280;42714;48.260;10.980;2023-07-22T16:26:15;968.5;;;26.5;33.6
51227;BME280;42714;48.260;10.980;2023-07-22T16:31:16;968.5;;;26.9;33.6
51227;BME280;42714;48.260;10.980;2023-07-22T16:36:17;968.5;;;26.8;33.5
51227;BME280;42714;48.260;10.980;2023-07-22T16:41:18;968.4;;;26.5;33.6
51227;BME280;42714;48.260;10.980;2023-07-22T16:46:20;968.4;;;26.1;34.4
51227;BME280;42714;48.260;10.980;2023-07-22T16:51:20;968.4;;;25.8;34.9
51227;BME280;42714;48.260;10.980;2023-07-22T16:56:22;968.5;;;25.7;35.3
51227;BME280;42714;48.260;10.980;2023-07-22T17:01:22;968.5;;;25.7;35.3
51227;BME280;42714;48.260;10.980;2023-07-22T17:06:24;968.5;;;25.7;35.2
51227;BME280;42714;48.260;10.980;2023-07-22T17:11:25;968.5;;;25.6;35.5
51227;BME280;42714;48.260;10.980;2023-07-22T17:16:26;968.4;;;25.5;36.1
51227;BME280;42714;48.260;10.980;2023-07-22T17:21:26;968.4;;;25.4;35.7
51227;BME280;42714;48.260;10.980;2023-07-22T17:26:28;968.4;;;25.2;36.9
51227;BME280;42714;48.260;10.980;2023-07-22T17:31:29;968.4;;;25.1;37.3
51227;BME280;42714;48.260;10.980;2023-07-22T17:36:30;968.4;;;24.9;38.0
51227;BME280;42714;48.260;10.980;2023-07-22T17:41:31;968.4;;;24.8;38.1
51227;BME280;42714;48.260;10.980;2023-07-22T17:46:32;968.4;;;24.6;37.8
51227;BME280;42714;48.260;10.980;2023-07-22T17:51:33;968.4;;;24.5;38.7
51227;BME280;42714;48.260;10.980;2023-07-22T17:56:34;968.4;;;24.4;39.5
51227;BME280;42714;48.260;10.980;2023-07-22T18:01:35;968.4;;;24.2;40.7
51227;BME280;42714;48.260;10.980;2023-07-22T18:06:36;968.5;;;24.1;42.8
51227;BME280;42714;48.260;10.980;2023-07-22T18:11:37;968.5;;;23.9;44.7
51227;BME280;42714;48.260;10.980;2023-07-22T18:16:38;968.5;;;23.7;47.1
51227;BME280;42714;48.260;10.980;2023-07-22T18:21:39;968.5;;;23.5;49.8
51227;BME280;42714;48.260;10.980;2023-07-22T18:26:40;968.5;;;23.3;52.0
51227;BME280;42714;48.260;10.980;2023-07-22T18:31:41;968.6;;;23.1;52.5
51227;BME280;42714;48.260;10.980;2023-07-22T18:36:42;968.6;;;22.9;54.9
51227;BME280;42714;48.260;10.980;2023-07-22T18:41:43;968.6;;;22.7;58.2
51227;BME280;42714;48.260;10.980;2023-07-22T18:46:46;968.6;;;22.5;61.1
51227;BME280;42714;48.260;10.980;2023-07-22T18:51:45;968.7;;;22.3;64.2
51227;BME280;42714;48.260;10.980;2023-07-22T18:56:46;968.7;;;22.0;66.5
51227;BME280;42714;48.260;10.980;2023-07-22T19:01:47;968.7;;;21.8;70.9
51227;BME280;42714;48.260;10.980;2023-07-22T19:06:48;968.8;;;21.6;73.0
51227;BME280;42714;48.260;10.980;2023-07-22T19:11:49;968.8;;;21.4;76.7
51227;BME280;42714;48.260;10.980;2023-07-22T19:16:54;968.8;;;21.2;79.6
51227;BME280;42714;48.260;10.980;2023-07-22T19:21:51;968.9;;;21.0;84.0
51227;BME280;42714;48.260;10.980;2023-07-22T19:26:52;968.9;;;20.9;86.6
51227;BME280;42714;48.260;10.980;2023-07-22T19:31:53;969.0;;;20.7;89.6
51227;BME280;42714;48.260;10.980;2023-07-22T19:36:54;969.0;;;20.6;92.0
51227;BME280;42714;48.260;10.980;2023-07-22T19:41:55;969.0;;;20.5;93.6
51227;BME280;42714;48.260;10.980;2023-07-22T19:46:56;969.0;;;20.3;96.8
51227;BME280;42714;48.260;10.980;2023-07-22T19:51:57;969.1;;;20.1;99.0
51227;BME280;42714;48.260;10.980;2023-07-22T19:56:58;969.2;;;20.0;100.0
51227;BME280;42714;48.260;10.980;2023-07-22T20:01:59;969.2;;;19.9;100.0
51227;BME280;42714;48.260;10.980;2023-07-22T20:07:00;969.2;;;19.7;100.0
51227;BME280;42714;48.260;10.980;2023-07-22T20:12:01;969.2;;;19.5;100.0
51227;BME280;42714;48.260;10.980;2023-07-22T20:17:02;969.3;;;19.4;100.0
51227;BME280;42714;48.260;10.980;2023-07-22T20:22:03;969.3;;;19.3;100.0
51227;BME280;42714;48.260;10.980;2023-07-22T20:27:04;969.3;;;19.1;100.0
51227;BME280;42714;48.260;10.980;2023-07-22T20:37:06;969.4;;;19.0;100.0
51227;BME280;42714;48.260;10.980;2023-07-22T20:42:07;969.4;;;18.8;100.0
51227;BME280;42714;48.260;10.980;2023-07-22T20:47:08;969.5;;;18.8;100.0
51227;BME280;42714;48.260;10.980;2023-07-22T20:52:09;969.6;;;18.8;100.0
51227;BME280;42714;48.260;10.980;2023-07-22T20:57:10;969.6;;;18.6;100.0
51227;BME280;42714;48.260;10.980;2023-07-22T21:02:11;969.6;;;18.7;100.0
51227;BME280;42714;48.260;10.980;2023-07-22T21:07:12;969.6;;;18.5;100.0
51227;BME280;42714;48.260;10.980;2023-07-22T21:12:13;969.6;;;18.4;100.0
51227;BME280;42714;48.260;10.980;2023-07-22T21:17:14;969.7;;;18.4;100.0
51227;BME280;42714;48.260;10.980;2023-07-22T21:22:15;969.7;;;18.3;100.0
51227;BME280;42714;48.260;10.980;2023-07-22T21:27:16;969.6;;;18.3;100.0
51227;BME280;42714;48.260;10.980;2023-07-22T21:32:17;969.6;;;18.2;100.0
51227;BME280;42714;48.260;10.980;2023-07-22T21:37:18;969.7;;;18.2;100.0
51227;BME280;42714;48.260;10.980;2023-07-22T21:42:19;969.6;;;18.2;100.0
51227;BME280;42714;48.260;10.980;2023-07-22T21:47:20;969.6;;;18.2;100.0
51227;BME280;42714;48.260;10.980;2023-07-22T21:52:21;969.6;;;18.2;100.0
51227;BME280;42714;48.260;10.980;2023-07-22T21:57:22;969.6;;;18.1;100.0
51227;BME280;42714;48.260;10.980;2023-07-22T22:02:23;969.6;;;18.1;100.0
51227;BME280;42714;48.260;10.980;2023-07-22T22:07:24;969.6;;;17.9;100.0
51227;BME280;42714;48.260;10.980;2023-07-22T22:12:25;969.6;;;17.8;100.0
51227;BME280;42714;48.260;10.980;2023-07-22T22:17:26;969.6;;;17.7;100.0
51227;BME280;42714;48.260;10.980;2023-07-22T22:22:27;969.7;;;17.7;100.0
51227;BME280;42714;48.260;10.980;2023-07-22T22:27:28;969.7;;;17.6;100.0
51227;BME280;42714;48.260;10.980;2023-07-22T22:32:29;969.7;;;17.5;100.0
51227;BME280;42714;48.260;10.980;2023-07-22T22:37:30;969.7;;;17.4;100.0
51227;BME280;42714;48.260;10.980;2023-07-22T22:42:31;969.7;;;17.4;100.0
51227;BME280;42714;48.260;10.980;2023-07-22T22:47:32;969.7;;;17.3;100.0
51227;BME280;42714;48.260;10.980;2023-07-22T22:52:33;969.7;;;17.2;100.0
51227;BME280;42714;48.260;10.980;2023-07-22T22:57:34;969.7;;;17.1;100.0
51227;BME280;42714;48.260;10.980;2023-07-22T23:02:35;969.7;;;17.1;100.0
51227;BME280;42714;48.260;10.980;2023-07-22T23:07:36;969.7;;;17.0;100.0
51227;BME280;42714;48.260;10.980;2023-07-22T23:12:37;969.6;;;16.9;100.0
51227;BME280;42714;48.260;10.980;2023-07-22T23:17:38;969.7;;;16.8;100.0
51227;BME280;42714;48.260;10.980;2023-07-22T23:22:39;969.7;;;16.6;100.0
51227;BME280;42714;48.260;10.980;2023-07-22T23:27:40;969.6;;;16.6;100.0
51227;BME280;42714;48.260;10.980;2023-07-22T23:32:41;969.7;;;16.5;100.0
51227;BME280;42714;48.260;10.980;2023-07-22T23:37:42;969.7;;;16.4;100.0
51227;BME280;42714;48.260;10.980;2023-07-22T23:42:43;969.7;;;16.3;100.0
51227;BME280;42714;48.260;10.980;2023-07-22T23:47:44;969.6;;;16.3;100.0
51227;BME280;42714;48.260;10.980;2023-07-22T23:52:45;969.6;;;16.3;100.0
51227;BME280;42714;48.260;10.980;2023-07-22T23:57:46;969.6;;;16.2;100.0
